createdAt,value
2022-10-05T00:00:22.708Z,20.42
2022-10-05T00:02:52.443Z,17.15
2022-10-05T00:05:22.809Z,24.30
2022-10-05T00:07:52.122Z,24.65
2022-10-05T00:10:20.775Z,22.90
2022-10-05T00:12:48.882Z,22.83
2022-10-05T00:15:19.984Z,27.48
2022-10-05T00:17:48.311Z,30.98
2022-10-05T00:20:26.786Z,40.03
2022-10-05T00:23:01.013Z,23.50
2022-10-05T00:25:29.336Z,22.27
2022-10-05T00:28:00.165Z,25.00
2022-10-05T00:30:34.060Z,23.33
2022-10-05T00:33:02.134Z,24.90
2022-10-05T00:35:30.982Z,23.95
2022-10-05T00:37:58.997Z,23.25
2022-10-05T00:40:35.727Z,22.48
2022-10-05T00:43:16.745Z,20.88
2022-10-05T00:45:51.907Z,20.92
2022-10-05T00:48:48.592Z,24.48
2022-10-05T00:51:19.006Z,25.55
2022-10-05T00:54:09.355Z,25.48
2022-10-05T00:56:43.319Z,22.75
2022-10-05T00:59:48.562Z,27.40
2022-10-05T01:02:38.150Z,28.98
2022-10-05T01:05:26.202Z,27.35
2022-10-05T01:08:08.847Z,29.55
2022-10-05T01:10:51.741Z,26.67
2022-10-05T01:13:19.873Z,19.10
2022-10-05T01:16:08.567Z,31.25
2022-10-05T01:19:08.727Z,20.23
2022-10-05T01:21:49.778Z,19.20
2022-10-05T01:24:23.061Z,22.80
2022-10-05T01:27:15.536Z,20.67
2022-10-05T01:29:55.508Z,20.58
2022-10-05T01:32:43.865Z,22.95
2022-10-05T01:35:17.669Z,19.10
2022-10-05T01:38:06.775Z,16.45
2022-10-05T01:40:50.538Z,19.00
2022-10-05T01:43:17.976Z,19.27
2022-10-05T01:46:02.040Z,18.42
2022-10-05T01:48:39.094Z,19.60
2022-10-05T01:51:59.175Z,20.70
2022-10-05T01:54:54.486Z,17.77
2022-10-05T01:57:34.179Z,21.48
2022-10-05T02:00:01.785Z,19.67
2022-10-05T02:02:35.457Z,19.55
2022-10-05T02:07:58.758Z,19.50
2022-10-05T02:10:40.958Z,21.25
2022-10-05T02:13:50.872Z,22.15
2022-10-05T02:16:28.746Z,20.90
2022-10-05T02:19:02.379Z,19.92
2022-10-05T02:21:34.274Z,20.35
2022-10-05T02:24:10.359Z,20.02
2022-10-05T02:26:40.718Z,20.80
2022-10-05T02:29:12.601Z,18.23
2022-10-05T02:32:22.989Z,18.83
2022-10-05T02:34:50.966Z,21.02
2022-10-05T02:37:43.795Z,24.90
2022-10-05T02:40:27.118Z,18.05
2022-10-05T02:43:09.024Z,21.90
2022-10-05T02:45:45.616Z,21.48
2022-10-05T02:48:22.496Z,23.58
2022-10-05T02:51:09.508Z,18.25
2022-10-05T02:53:59.389Z,15.98
2022-10-05T02:56:33.071Z,16.45
2022-10-05T02:59:09.950Z,20.10
2022-10-05T03:01:52.763Z,20.20
2022-10-05T03:04:47.921Z,17.48
2022-10-05T03:07:49.282Z,18.65
2022-10-05T03:10:21.818Z,19.77
2022-10-05T03:13:17.437Z,20.45
2022-10-05T03:16:01.770Z,24.90
2022-10-05T03:19:02.656Z,22.10
2022-10-05T03:21:45.436Z,28.80
2022-10-05T03:24:16.369Z,21.80
2022-10-05T03:26:48.163Z,26.65
2022-10-05T03:29:35.398Z,17.67
2022-10-05T03:32:06.131Z,23.60
2022-10-05T03:34:42.178Z,20.08
2022-10-05T03:37:22.011Z,21.65
2022-10-05T03:40:01.438Z,26.02
2022-10-05T03:42:58.886Z,22.45
2022-10-05T03:45:59.372Z,14.65
2022-10-05T03:48:38.670Z,20.85
2022-10-05T03:51:24.895Z,25.65
2022-10-05T03:54:10.959Z,17.38
2022-10-05T03:56:45.570Z,15.45
2022-10-05T03:59:41.822Z,21.67
2022-10-05T04:02:28.009Z,23.73
2022-10-05T04:05:03.845Z,27.75
2022-10-05T04:07:46.982Z,27.38
2022-10-05T04:10:24.124Z,23.42
2022-10-05T04:12:58.688Z,21.00
2022-10-05T04:15:54.899Z,24.83
2022-10-05T04:18:28.995Z,21.77
2022-10-05T04:21:12.199Z,25.27
2022-10-05T04:24:01.153Z,26.02
2022-10-05T04:26:48.844Z,25.80
2022-10-05T04:29:36.246Z,26.58
2022-10-05T04:32:15.994Z,23.27
2022-10-05T04:35:00.646Z,21.98
2022-10-05T04:37:54.116Z,25.80
2022-10-05T04:40:52.327Z,31.38
2022-10-05T04:43:40.863Z,23.13
2022-10-05T04:46:17.707Z,25.17
2022-10-05T04:49:06.168Z,25.63
2022-10-05T04:51:50.879Z,23.35
2022-10-05T04:54:43.653Z,24.13
2022-10-05T04:57:23.802Z,21.42
2022-10-05T05:00:01.181Z,21.80
2022-10-05T05:03:00.336Z,28.17
2022-10-05T05:05:34.836Z,23.92
2022-10-05T05:08:24.370Z,21.02
2022-10-05T05:11:16.863Z,23.45
2022-10-05T05:14:04.897Z,19.38
2022-10-05T05:16:49.786Z,20.52
2022-10-05T05:19:32.956Z,24.00
2022-10-05T05:22:07.239Z,24.48
2022-10-05T05:24:59.709Z,23.25
2022-10-05T05:27:47.067Z,19.63
2022-10-05T05:30:24.069Z,25.25
2022-10-05T05:32:59.155Z,23.00
2022-10-05T05:35:29.726Z,23.27
2022-10-05T05:38:19.137Z,24.38
2022-10-05T05:40:55.969Z,22.55
2022-10-05T05:43:27.172Z,17.92
2022-10-05T05:46:00.827Z,19.88
2022-10-05T05:48:43.615Z,24.92
2022-10-05T05:51:26.115Z,20.88
2022-10-05T05:53:58.031Z,21.20
2022-10-05T05:56:41.048Z,21.23
2022-10-05T05:59:20.240Z,23.55
2022-10-05T06:01:57.159Z,17.20
2022-10-05T06:04:52.896Z,22.27
2022-10-05T06:07:30.377Z,22.35
2022-10-05T06:10:25.055Z,19.45
2022-10-05T06:13:07.544Z,23.92
2022-10-05T06:15:44.216Z,23.17
2022-10-05T06:18:17.979Z,23.33
2022-10-05T06:20:48.935Z,22.48
2022-10-05T06:23:22.329Z,19.15
2022-10-05T06:26:05.988Z,23.80
2022-10-05T06:28:37.919Z,21.08
2022-10-05T06:31:09.311Z,24.60
2022-10-05T06:33:46.971Z,22.42
2022-10-05T06:36:35.088Z,25.17
2022-10-05T06:39:06.461Z,25.52
2022-10-05T06:41:39.926Z,21.48
2022-10-05T06:44:21.449Z,25.52
2022-10-05T06:47:18.613Z,31.58
2022-10-05T06:50:31.536Z,26.50
2022-10-05T06:53:20.976Z,25.00
2022-10-05T06:56:19.930Z,26.98
2022-10-05T06:59:12.386Z,25.77
2022-10-05T07:01:51.738Z,21.30
2022-10-05T07:04:26.168Z,21.35
2022-10-05T07:09:32.608Z,22.90
2022-10-05T07:12:05.140Z,22.60
2022-10-05T07:14:59.014Z,25.15
2022-10-05T07:17:32.392Z,24.17
2022-10-05T07:20:32.775Z,21.20
2022-10-05T07:23:14.701Z,20.50
2022-10-05T07:26:16.021Z,21.95
2022-10-05T07:28:51.093Z,26.63
2022-10-05T07:31:24.584Z,20.55
2022-10-05T07:34:12.883Z,17.73
2022-10-05T07:37:02.942Z,16.10
2022-10-05T07:40:00.081Z,22.25
2022-10-05T07:42:50.472Z,18.50
2022-10-05T07:45:38.149Z,19.97
2022-10-05T07:48:21.118Z,22.17
2022-10-05T07:51:19.355Z,24.75
2022-10-05T07:53:56.832Z,20.80
2022-10-05T07:56:32.600Z,23.33
2022-10-05T07:59:07.875Z,22.00
2022-10-05T08:01:40.076Z,30.95
2022-10-05T08:04:17.792Z,25.88
2022-10-05T08:07:12.813Z,22.83
2022-10-05T08:09:47.369Z,23.42
2022-10-05T08:12:45.960Z,22.92
2022-10-05T08:15:21.995Z,20.15
2022-10-05T08:18:00.125Z,23.83
2022-10-05T08:20:46.394Z,23.40
2022-10-05T08:23:16.864Z,26.55
2022-10-05T08:26:09.766Z,30.45
2022-10-05T08:28:42.721Z,17.05
2022-10-05T08:31:16.346Z,18.20
2022-10-05T08:36:39.990Z,16.75
2022-10-05T08:39:18.836Z,13.25
2022-10-05T08:42:05.756Z,19.23
2022-10-05T08:45:11.126Z,12.77
2022-10-05T08:47:50.978Z,20.65
2022-10-05T08:50:37.455Z,17.27
2022-10-05T08:53:32.024Z,14.43
2022-10-05T08:56:19.858Z,14.23
2022-10-05T08:59:07.000Z,14.75
2022-10-05T09:01:59.169Z,13.70
2022-10-05T09:04:30.332Z,13.05
2022-10-05T09:07:10.921Z,12.05
2022-10-05T09:10:13.257Z,12.13
2022-10-05T09:13:02.522Z,16.55
2022-10-05T09:15:48.320Z,12.95
2022-10-05T09:21:43.907Z,13.60
2022-10-05T09:24:15.227Z,12.90
2022-10-05T09:27:00.714Z,11.57
2022-10-05T09:29:34.436Z,13.05
2022-10-05T09:32:11.775Z,10.50
2022-10-05T09:35:09.713Z,11.95
2022-10-05T09:37:48.068Z,10.73
2022-10-05T09:40:53.103Z,18.63
2022-10-05T09:43:54.456Z,14.98
2022-10-05T09:46:42.316Z,12.27
2022-10-05T09:49:29.106Z,14.68
2022-10-05T09:52:19.192Z,11.45
2022-10-05T09:54:57.185Z,10.27
2022-10-05T09:57:59.672Z,12.05
2022-10-05T10:00:38.573Z,16.15
2022-10-05T10:03:24.737Z,14.93
2022-10-05T10:06:19.408Z,10.90
2022-10-05T10:09:19.107Z,10.75
2022-10-05T10:12:12.660Z,16.80
2022-10-05T10:15:12.131Z,9.70
2022-10-05T10:17:58.852Z,11.50
2022-10-05T10:20:48.848Z,11.25
2022-10-05T10:23:43.866Z,9.85
2022-10-05T10:26:45.763Z,9.80
2022-10-05T10:29:37.901Z,9.40
2022-10-05T10:32:28.093Z,15.02
2022-10-05T10:35:19.537Z,9.40
2022-10-05T10:37:55.481Z,9.68
2022-10-05T10:40:42.563Z,8.82
2022-10-05T10:43:47.543Z,8.75
2022-10-05T10:46:59.736Z,11.20
2022-10-05T10:49:46.170Z,9.57
2022-10-05T10:52:53.869Z,9.40
2022-10-05T10:55:38.558Z,8.50
2022-10-05T10:58:21.024Z,12.85
2022-10-05T11:01:06.700Z,17.05
2022-10-05T11:03:54.560Z,12.65
2022-10-05T11:06:34.410Z,13.68
2022-10-05T11:09:24.046Z,7.15
2022-10-05T11:12:18.040Z,11.10
2022-10-05T11:15:20.122Z,8.95
2022-10-05T11:18:02.979Z,9.77
2022-10-05T11:20:56.322Z,12.85
2022-10-05T11:24:01.321Z,12.75
2022-10-05T11:26:50.630Z,13.43
2022-10-05T11:29:43.895Z,13.68
2022-10-05T11:32:39.587Z,9.27
2022-10-05T11:35:38.488Z,12.52
2022-10-05T11:38:25.182Z,15.57
2022-10-05T11:40:52.781Z,12.10
2022-10-05T11:43:48.500Z,13.45
2022-10-05T11:46:16.624Z,14.90
2022-10-05T11:49:03.122Z,10.85
2022-10-05T11:51:39.854Z,10.20
2022-10-05T11:54:52.107Z,12.75
2022-10-05T11:57:34.985Z,10.80
2022-10-05T12:00:12.957Z,12.18
2022-10-05T12:03:07.044Z,9.57
2022-10-05T12:06:17.061Z,12.13
2022-10-05T12:09:09.611Z,13.63
2022-10-05T12:11:57.959Z,12.05
2022-10-05T12:14:48.094Z,14.23
2022-10-05T12:17:43.859Z,14.00
2022-10-05T12:20:20.468Z,16.88
2022-10-05T12:22:58.955Z,15.13
2022-10-05T12:25:59.625Z,18.35
2022-10-05T12:28:38.207Z,14.07
2022-10-05T12:31:34.689Z,13.40
2022-10-05T12:34:23.430Z,13.32
2022-10-05T12:37:05.559Z,14.75
2022-10-05T12:40:08.880Z,15.00
2022-10-05T12:42:55.204Z,16.17
2022-10-05T12:45:47.467Z,14.02
2022-10-05T12:48:47.231Z,16.60
2022-10-05T12:51:35.939Z,11.50
2022-10-05T12:54:36.547Z,14.20
2022-10-05T12:57:43.097Z,16.20
2022-10-05T13:00:22.468Z,12.45
2022-10-05T13:03:20.830Z,15.88
2022-10-05T13:05:52.061Z,14.50
2022-10-05T13:08:38.822Z,16.85
2022-10-05T13:11:59.056Z,19.35
2022-10-05T13:15:06.704Z,16.13
2022-10-05T13:17:45.880Z,15.43
2022-10-05T13:20:28.254Z,20.23
2022-10-05T13:23:22.736Z,14.38
2022-10-05T13:26:08.938Z,16.52
2022-10-05T13:28:53.571Z,15.38
2022-10-05T13:31:27.433Z,19.17
2022-10-05T13:34:13.867Z,15.38
2022-10-05T13:37:06.484Z,16.10
2022-10-05T13:40:32.312Z,18.73
2022-10-05T13:43:06.291Z,20.00
2022-10-05T13:45:52.668Z,13.38
2022-10-05T13:48:57.203Z,16.27
2022-10-05T13:51:36.020Z,16.92
2022-10-05T13:54:21.535Z,18.48
2022-10-05T13:56:54.545Z,19.05
2022-10-05T13:59:36.096Z,15.90
2022-10-05T14:02:12.596Z,21.30
2022-10-05T14:04:51.246Z,16.77
2022-10-05T14:07:29.805Z,14.48
2022-10-05T14:09:59.729Z,12.88
2022-10-05T14:12:28.375Z,27.90
2022-10-05T14:14:58.448Z,17.63
2022-10-05T14:17:33.435Z,14.63
2022-10-05T14:20:03.515Z,19.30
2022-10-05T14:22:41.590Z,20.25
2022-10-05T14:25:09.507Z,14.75
2022-10-05T14:27:58.632Z,17.13
2022-10-05T14:30:28.998Z,16.17
2022-10-05T14:33:05.683Z,15.02
2022-10-05T14:35:51.803Z,11.52
2022-10-05T14:38:29.474Z,15.32
2022-10-05T14:41:19.085Z,14.00
2022-10-05T14:44:09.593Z,11.82
2022-10-05T14:46:38.673Z,16.30
2022-10-05T14:49:27.459Z,13.52
2022-10-05T14:51:56.672Z,11.63
2022-10-05T14:54:41.257Z,16.27
2022-10-05T14:57:37.578Z,11.60
2022-10-05T15:00:13.497Z,14.75
2022-10-05T15:03:03.608Z,18.17
2022-10-05T15:05:55.979Z,12.95
2022-10-05T15:08:45.324Z,17.02
2022-10-05T15:11:13.080Z,15.10
2022-10-05T15:13:47.569Z,14.98
2022-10-05T15:16:15.368Z,13.30
2022-10-05T15:19:08.304Z,16.27
2022-10-05T15:21:55.310Z,13.77
2022-10-05T15:24:27.003Z,15.82
2022-10-05T15:27:01.202Z,11.80
2022-10-05T15:29:38.552Z,13.45
2022-10-05T15:32:28.959Z,15.55
2022-10-05T15:35:36.854Z,15.85
2022-10-05T15:38:27.636Z,32.38
2022-10-05T15:41:14.877Z,17.35
2022-10-05T15:44:07.739Z,19.85
2022-10-05T15:46:45.271Z,19.80
2022-10-05T15:49:37.637Z,20.25
2022-10-05T15:52:30.489Z,26.42
2022-10-05T15:55:20.207Z,20.13
2022-10-05T15:57:57.807Z,17.38
2022-10-05T16:00:27.414Z,19.25
2022-10-05T16:03:24.826Z,20.73
2022-10-05T16:06:20.809Z,18.38
2022-10-05T16:09:04.491Z,17.50
2022-10-05T16:11:32.524Z,18.35
2022-10-05T16:14:10.392Z,18.65
2022-10-05T16:17:02.728Z,18.80
2022-10-05T16:19:30.897Z,18.65
2022-10-05T16:22:25.331Z,18.92
2022-10-05T16:24:59.742Z,17.63
2022-10-05T16:27:36.607Z,17.88
2022-10-05T16:30:16.625Z,15.35
2022-10-05T16:33:36.285Z,20.27
2022-10-05T16:36:41.443Z,15.38
2022-10-05T16:39:25.366Z,14.23
2022-10-05T16:45:07.198Z,16.08
2022-10-05T16:47:53.957Z,17.52
2022-10-05T16:50:49.680Z,21.27
2022-10-05T16:53:45.986Z,19.40
2022-10-05T16:56:17.293Z,15.23
2022-10-05T16:58:44.758Z,14.40
2022-10-05T17:01:15.191Z,14.68
2022-10-05T17:03:49.805Z,20.38
2022-10-05T17:06:37.395Z,17.45
2022-10-05T17:09:35.139Z,18.60
2022-10-05T17:12:26.823Z,17.50
2022-10-05T17:15:29.304Z,20.95
2022-10-05T17:18:18.772Z,14.85
2022-10-05T17:20:54.985Z,23.48
2022-10-05T17:23:41.843Z,16.52
2022-10-05T17:26:40.340Z,19.58
2022-10-05T17:29:28.011Z,19.02
2022-10-05T17:32:20.645Z,19.27
2022-10-05T17:35:00.665Z,18.20
2022-10-05T17:37:29.504Z,17.60
2022-10-05T17:39:59.037Z,18.88
2022-10-05T17:42:26.783Z,19.70
2022-10-05T17:44:58.599Z,24.92
2022-10-05T17:48:30.871Z,23.05
2022-10-05T17:51:17.391Z,23.35
2022-10-05T17:54:04.010Z,23.15
2022-10-05T17:56:54.366Z,22.30
2022-10-05T17:59:46.482Z,21.15
2022-10-05T18:02:37.516Z,21.63
2022-10-05T18:05:05.501Z,22.67
2022-10-05T18:07:34.950Z,18.80
2022-10-05T18:10:12.277Z,22.83
2022-10-05T18:12:59.372Z,29.52
2022-10-05T18:15:27.595Z,23.08
2022-10-05T18:17:59.641Z,21.63
2022-10-05T18:20:33.034Z,24.45
2022-10-05T18:23:03.719Z,26.60
2022-10-05T18:26:02.353Z,20.48
2022-10-05T18:29:14.024Z,25.25
2022-10-05T18:31:48.043Z,21.58
2022-10-05T18:34:31.337Z,21.35
2022-10-05T18:37:10.582Z,22.55
2022-10-05T18:40:09.813Z,18.65
2022-10-05T18:43:11.840Z,28.77
2022-10-05T18:46:08.127Z,24.45
2022-10-05T18:48:59.878Z,25.63
2022-10-05T18:51:39.774Z,21.45
2022-10-05T18:54:31.342Z,25.27
2022-10-05T18:57:01.474Z,25.08
2022-10-05T18:59:58.581Z,25.20
2022-10-05T19:02:44.281Z,26.65
2022-10-05T19:05:48.118Z,23.42
2022-10-05T19:08:44.486Z,21.00
2022-10-05T19:11:19.141Z,27.35
2022-10-05T19:13:56.092Z,24.55
2022-10-05T19:16:26.647Z,35.42
2022-10-05T19:19:32.470Z,28.55
2022-10-05T19:22:09.461Z,29.15
2022-10-05T19:25:09.435Z,27.85
2022-10-05T19:27:55.553Z,29.70
2022-10-05T19:30:27.311Z,23.05
2022-10-05T19:33:16.622Z,24.95
2022-10-05T19:36:23.970Z,29.73
2022-10-05T19:39:06.951Z,29.30
2022-10-05T19:42:07.029Z,32.92
2022-10-05T19:44:35.437Z,24.38
2022-10-05T19:47:24.073Z,23.50
2022-10-05T19:49:51.666Z,21.50
2022-10-05T19:52:37.784Z,22.27
2022-10-05T19:55:26.427Z,20.83
2022-10-05T19:58:01.333Z,23.00
2022-10-05T20:00:35.380Z,26.00
2022-10-05T20:03:18.826Z,27.70
2022-10-05T20:05:46.614Z,26.63
2022-10-05T20:08:19.497Z,20.95
2022-10-05T20:11:11.971Z,22.20
2022-10-05T20:13:43.679Z,22.17
2022-10-05T20:16:35.739Z,23.00
2022-10-05T20:19:50.190Z,22.20
2022-10-05T20:22:46.622Z,22.52
2022-10-05T20:25:17.631Z,24.05
2022-10-05T20:27:55.579Z,26.45
2022-10-05T20:30:28.988Z,27.65
2022-10-05T20:33:04.716Z,27.10
2022-10-05T20:35:32.846Z,21.52
2022-10-05T20:38:00.906Z,33.45
2022-10-05T20:40:30.742Z,33.78
2022-10-05T20:42:59.013Z,30.60
2022-10-05T20:45:27.105Z,30.00
2022-10-05T20:47:55.722Z,32.53
2022-10-05T20:50:23.273Z,35.47
2022-10-05T20:52:53.103Z,31.67
2022-10-05T20:55:21.281Z,32.90
2022-10-05T20:57:49.210Z,39.78
2022-10-05T21:00:16.739Z,35.85
2022-10-05T21:02:46.756Z,36.95
2022-10-05T21:05:15.614Z,35.50
2022-10-05T21:07:43.152Z,36.05
2022-10-05T21:10:11.755Z,32.10
2022-10-05T21:12:40.115Z,30.45
2022-10-05T21:15:08.620Z,32.85
2022-10-05T21:17:36.400Z,28.25
2022-10-05T21:20:04.611Z,45.05
2022-10-05T21:22:35.565Z,40.90
2022-10-05T21:25:03.108Z,33.75
2022-10-05T21:27:32.617Z,33.17
2022-10-05T21:30:00.850Z,33.38
2022-10-05T21:32:28.795Z,34.83
2022-10-05T21:34:57.311Z,37.03
2022-10-05T21:37:25.398Z,32.38
2022-10-05T21:39:53.745Z,31.27
2022-10-05T21:42:23.518Z,31.25
2022-10-05T21:44:51.201Z,30.92
2022-10-05T21:47:19.617Z,35.58
2022-10-05T21:49:47.599Z,32.45
2022-10-05T21:52:15.190Z,31.73
2022-10-05T21:54:43.255Z,33.72
2022-10-05T21:57:11.992Z,31.65
2022-10-05T21:59:43.041Z,37.63
2022-10-05T22:02:12.018Z,34.95
2022-10-05T22:04:39.878Z,37.55
2022-10-05T22:07:19.760Z,41.97
2022-10-05T22:09:51.649Z,30.98
2022-10-05T22:12:20.250Z,37.10
2022-10-05T22:14:48.789Z,39.13
2022-10-05T22:17:23.726Z,42.90
2022-10-05T22:19:51.671Z,37.20
2022-10-05T22:22:19.639Z,41.40
2022-10-05T22:24:47.716Z,42.78
2022-10-05T22:27:16.715Z,32.10
2022-10-05T22:29:44.550Z,37.75
2022-10-05T22:32:12.122Z,42.28
2022-10-05T22:34:40.711Z,43.53
2022-10-05T22:37:13.092Z,36.38
2022-10-05T22:39:42.748Z,37.33
2022-10-05T22:42:10.792Z,40.13
2022-10-05T22:44:39.803Z,38.58
2022-10-05T22:47:07.599Z,48.72
2022-10-05T22:49:35.139Z,45.83
2022-10-05T22:52:03.159Z,45.70
2022-10-05T22:54:34.269Z,42.53
2022-10-05T22:57:04.358Z,36.53
2022-10-05T22:59:32.071Z,46.58
2022-10-05T23:01:59.779Z,40.97
2022-10-05T23:04:27.785Z,35.30
2022-10-05T23:06:56.334Z,42.78
2022-10-05T23:09:24.334Z,41.70
2022-10-05T23:11:54.277Z,41.38
2022-10-05T23:14:22.397Z,41.35
2022-10-05T23:16:50.215Z,41.63
2022-10-05T23:19:18.467Z,41.95
2022-10-05T23:21:46.127Z,34.83
2022-10-05T23:24:13.748Z,40.30
2022-10-05T23:26:41.871Z,39.33
2022-10-05T23:29:10.072Z,41.22
2022-10-05T23:31:37.697Z,40.40
2022-10-05T23:34:05.232Z,42.78
2022-10-05T23:36:33.373Z,41.88
2022-10-05T23:39:01.384Z,43.78
2022-10-05T23:41:28.956Z,44.35
2022-10-05T23:43:57.147Z,43.55
2022-10-05T23:46:24.805Z,38.25
2022-10-05T23:48:53.404Z,38.53
2022-10-05T23:51:21.590Z,44.28
2022-10-05T23:53:49.234Z,36.58
2022-10-05T23:56:17.326Z,43.95
2022-10-05T23:58:45.211Z,57.42
